KSKF

Kelly Field Airport

San Antonio, Texas, USA
METAR KSKF 211356Z AUTO 36007KT 10SM FEW011 22/20 A2999 RMK AO2 SLP150 T02220199 $
Observed Flight Rules
May-21 @ 13:56 UTC (55 minutes ago) Visual Flight Rules
Wind Visibility Clouds
360° at 7 knots 10 miles
  • Few at 1,100' AGL
Temperatures Readings
Current 22°C / 72°F
Dewpoint 20°C / 68°F
Humidity 88%
Altimeter 29.99" Hg
Pressure 1015 hPa
Elevation 210
METAR KSKF 211356Z AUTO 36007KT 10SM FEW011 22/20 A2999 RMK AO2 SLP150 T02220199 $
Observed Flight Rules
May-21 @ 13:56 UTC
(55 minutes ago)
VFR
Wind Visibility
360° at 7 knots 10 miles
Clouds
  • Few at 1,100' AGL
Temperature Dewpoint
22°C / 72°F 20°C / 68°F
Humidity Altimeter Pressure
88% 29.99" Hg 1015 hPa